Yogi — DJ5464 — position and weather

sailwx.info

Track history (hours):
 
Tides and Currents Weather Stations Pressure Air Temp Water Temp Dewpoint Dewpoint Depression Visibility Wind Speed Wind Dir Waves Ship Positions

Yogi

Last reported at 2014-Sep-21 12:19 UTC. Time now 2014-Sep-22 16:20 UTC.
Position N 54°24' E 012°48'.

Length 11 m.

Type: Sailing vessel. MMSI: 211330220.

Date/timePositionNaut miles runAvg speedWind from/ knotsBaromVisibWave heightAir tempDewpointWater temp
2014-Sep-21 12:19N 54°24' E 012°48'9 4.6
2014-Sep-21 10:19N 54°25' E 013°03'4 5.0
2014-Sep-21 09:33N 54°22' E 013°06'3 2.9
2014-Sep-21 08:26N 54°19' E 013°07'0 0.0
2014-Sep-21 07:31N 54°19' E 013°07'0 0.0
2014-Sep-21 06:33N 54°19' E 013°07'  
2014-Sep-15 07:32N 54°19' E 013°07'0 0.0
2014-Sep-14 15:32N 54°19' E 013°07'1 0.8
2014-Sep-14 14:33N 54°20' E 013°06'11 0.4
2014-Sep-13 11:31N 54°30' E 013°07'4 4.6
2014-Sep-13 10:33N 54°26' E 013°06'4 3.6
2014-Sep-13 09:33N 54°22' E 013°06'3 3.4
2014-Sep-13 08:33N 54°19' E 013°07'  
Track history (hours):
 
Tides and Currents Weather Stations Pressure Air Temp Water Temp Dewpoint Dewpoint Depression Visibility Wind Speed Wind Dir Waves Ship Positions

Yogi

Last reported at 2014-Sep-21 12:19 UTC. Time now 2014-Sep-22 16:20 UTC.
Position N 54°24' E 012°48'.

Length 11 m.

Type: Sailing vessel. MMSI: 211330220.

Date/timePositionNaut miles runAvg speedWind from/ knotsBaromVisibWave heightAir tempDewpointWater temp
2014-Sep-21 12:19N 54°24' E 012°48'9 4.6
2014-Sep-21 10:19N 54°25' E 013°03'4 5.0
2014-Sep-21 09:33N 54°22' E 013°06'3 2.9
2014-Sep-21 08:26N 54°19' E 013°07'0 0.0
2014-Sep-21 07:31N 54°19' E 013°07'0 0.0
2014-Sep-21 06:33N 54°19' E 013°07'  
2014-Sep-15 07:32N 54°19' E 013°07'0 0.0
2014-Sep-14 15:32N 54°19' E 013°07'1 0.8
2014-Sep-14 14:33N 54°20' E 013°06'11 0.4
2014-Sep-13 11:31N 54°30' E 013°07'4 4.6
2014-Sep-13 10:33N 54°26' E 013°06'4 3.6
2014-Sep-13 09:33N 54°22' E 013°06'3 3.4
2014-Sep-13 08:33N 54°19' E 013°07'  

Dump ship's entire track history